You are not logged in, Click here to log in
ICAO: RJOA Country: 日本廣島縣三原市
Latitude: 34.4399 Longitude: 132.919
Total Arrivals: 36 Total Departures: 27
Latest Arrival: FS05 (ZSSS-RJOA)CHU. CHUHAO Latest Departure: 3KCI11 (RJOA-RJFK)Jason. Li
Scenery:
METAR : RJOA 190800Z 11004KT 1500 R10/P1800N -SHRA BCFG BR FEW000 SCT001 BKN002 23/21 Q1014

広島空港HIJ